createdAt,value
2022-11-27T00:03:30.608Z,6.09
2022-11-27T00:08:32.405Z,7.40
2022-11-27T00:13:34.521Z,5.81
2022-11-27T00:18:36.512Z,5.87
2022-11-27T00:23:38.650Z,6.32
2022-11-27T00:28:40.303Z,7.60
2022-11-27T00:33:42.172Z,6.83
2022-11-27T00:38:44.053Z,6.43
2022-11-27T00:43:46.570Z,6.50
2022-11-27T00:48:48.228Z,6.33
2022-11-27T00:53:50.425Z,5.20
2022-11-27T00:58:52.944Z,6.15
2022-11-27T01:03:56.451Z,6.98
2022-11-27T01:08:59.188Z,6.27
2022-11-27T01:14:08.264Z,6.53
2022-11-27T01:19:12.719Z,6.04
2022-11-27T01:24:15.735Z,6.27
2022-11-27T01:29:17.311Z,6.63
2022-11-27T01:34:19.159Z,6.84
2022-11-27T01:39:21.502Z,6.35
2022-11-27T01:44:26.147Z,7.05
2022-11-27T01:49:33.275Z,5.59
2022-11-27T01:54:41.926Z,4.92
2022-11-27T01:59:45.243Z,5.92
2022-11-27T02:04:46.793Z,5.14
2022-11-27T02:09:48.481Z,5.21
2022-11-27T02:14:52.729Z,4.76
2022-11-27T02:20:33.432Z,4.66
2022-11-27T02:25:56.957Z,6.01
2022-11-27T02:31:06.168Z,6.19
2022-11-27T02:36:14.370Z,5.29
2022-11-27T02:41:46.655Z,5.00
2022-11-27T02:46:49.887Z,6.40
2022-11-27T02:51:57.297Z,6.17
2022-11-27T02:57:03.668Z,6.53
2022-11-27T03:02:10.734Z,6.92
2022-11-27T03:07:32.174Z,6.29
2022-11-27T03:12:33.827Z,6.78
2022-11-27T03:18:08.202Z,7.29
2022-11-27T03:23:09.859Z,6.44
2022-11-27T03:28:13.862Z,6.97
2022-11-27T03:33:15.561Z,6.82
2022-11-27T03:38:17.214Z,8.13
2022-11-27T03:43:24.123Z,5.33
2022-11-27T03:48:37.581Z,5.16
2022-11-27T03:54:03.568Z,5.30
2022-11-27T03:59:33.663Z,6.41
2022-11-27T04:04:35.363Z,5.04
2022-11-27T04:09:36.943Z,4.47
2022-11-27T04:14:39.037Z,3.89
2022-11-27T04:19:40.773Z,4.19
2022-11-27T04:24:42.482Z,4.18
2022-11-27T04:29:44.257Z,4.35
2022-11-27T04:34:45.835Z,4.57
2022-11-27T04:39:47.531Z,6.28
2022-11-27T04:44:49.179Z,5.44
2022-11-27T04:49:50.744Z,6.05
2022-11-27T04:54:56.784Z,5.61
2022-11-27T05:00:01.559Z,7.53
2022-11-27T05:05:03.785Z,6.49
2022-11-27T05:10:06.533Z,7.05
2022-11-27T05:15:09.745Z,7.63
2022-11-27T05:20:11.548Z,7.49
2022-11-27T05:25:13.166Z,6.53
2022-11-27T05:30:14.793Z,7.50
2022-11-27T05:35:16.547Z,7.51
2022-11-27T05:40:18.139Z,6.97
2022-11-27T05:45:19.789Z,5.87
2022-11-27T05:50:21.394Z,7.11
2022-11-27T05:55:23.058Z,6.91
2022-11-27T06:00:26.976Z,7.18
2022-11-27T06:05:28.699Z,6.76
2022-11-27T06:10:30.349Z,7.32
2022-11-27T06:15:32.055Z,8.15
2022-11-27T06:20:33.646Z,6.67
2022-11-27T06:25:35.198Z,7.28
2022-11-27T06:30:38.144Z,7.84
2022-11-27T06:35:39.695Z,4.97
2022-11-27T06:40:41.276Z,5.57
2022-11-27T06:45:42.908Z,5.96
2022-11-27T06:50:44.483Z,5.45
2022-11-27T06:55:47.176Z,6.18
2022-11-27T07:00:48.819Z,8.24
2022-11-27T07:05:50.378Z,7.68
2022-11-27T07:10:52.072Z,7.97
2022-11-27T07:15:54.062Z,7.15
2022-11-27T07:20:56.782Z,7.43
2022-11-27T07:25:59.152Z,5.23
2022-11-27T07:31:01.694Z,4.94
2022-11-27T07:36:13.390Z,5.51
2022-11-27T07:41:15.681Z,4.98
2022-11-27T07:46:23.506Z,5.08
2022-11-27T07:51:25.233Z,6.72
2022-11-27T07:56:27.919Z,5.92
2022-11-27T08:01:29.610Z,7.17
2022-11-27T08:06:31.246Z,6.95
2022-11-27T08:11:35.252Z,6.29
2022-11-27T08:16:37.004Z,7.23
2022-11-27T08:21:38.822Z,7.01
2022-11-27T08:26:40.530Z,8.23
2022-11-27T08:31:42.237Z,6.21
2022-11-27T08:36:43.884Z,5.42
2022-11-27T08:41:45.567Z,7.09
2022-11-27T08:46:47.436Z,5.50
2022-11-27T08:51:49.128Z,6.59
2022-11-27T08:56:52.770Z,5.95
2022-11-27T09:01:54.423Z,6.55
2022-11-27T09:06:58.701Z,7.09
2022-11-27T09:12:00.574Z,7.04
2022-11-27T09:17:02.290Z,6.77
2022-11-27T09:22:04.099Z,5.40
2022-11-27T09:27:05.755Z,6.75
2022-11-27T09:32:07.383Z,8.11
2022-11-27T09:37:09.243Z,7.51
2022-11-27T09:42:26.295Z,8.19
2022-11-27T09:47:56.764Z,8.31
2022-11-27T09:53:05.619Z,7.69
2022-11-27T09:58:18.722Z,7.76
2022-11-27T10:03:25.563Z,7.68
2022-11-27T10:09:04.198Z,8.34
2022-11-27T10:14:11.515Z,7.64
2022-11-27T10:19:32.505Z,7.82
2022-11-27T10:24:46.070Z,8.23
2022-11-27T10:29:54.377Z,6.97
2022-11-27T10:35:01.494Z,6.63
2022-11-27T10:40:08.673Z,7.72
2022-11-27T10:45:29.811Z,7.10
2022-11-27T10:50:31.577Z,7.12
2022-11-27T10:55:52.733Z,7.59
2022-11-27T11:06:25.233Z,4.53
2022-11-27T11:11:27.591Z,4.40
2022-11-27T11:16:35.287Z,5.64
2022-11-27T11:21:42.551Z,4.04
2022-11-27T11:26:53.397Z,6.02
2022-11-27T11:31:57.272Z,4.94
2022-11-27T11:37:02.919Z,5.10
2022-11-27T11:42:29.264Z,5.10
2022-11-27T11:47:31.914Z,6.10
2022-11-27T11:52:42.438Z,5.60
2022-11-27T11:58:22.254Z,5.78
2022-11-27T12:03:29.806Z,5.72
2022-11-27T12:09:08.734Z,6.35
2022-11-27T12:14:11.483Z,6.72
2022-11-27T12:19:25.158Z,4.89
2022-11-27T12:24:44.121Z,6.87
2022-11-27T12:30:21.071Z,5.52
2022-11-27T12:35:32.927Z,6.46
2022-11-27T12:41:18.496Z,6.04
2022-11-27T12:46:26.628Z,5.99
2022-11-27T12:51:30.715Z,5.27
2022-11-27T12:56:39.243Z,4.63
2022-11-27T13:01:50.548Z,5.36
2022-11-27T13:07:20.570Z,5.99
2022-11-27T13:12:51.846Z,5.97
2022-11-27T13:18:41.426Z,5.19
2022-11-27T13:23:43.140Z,6.93
2022-11-27T13:28:51.219Z,6.46
2022-11-27T13:34:04.706Z,6.58
2022-11-27T13:39:07.294Z,7.35
2022-11-27T13:44:24.683Z,6.34
2022-11-27T13:49:33.080Z,6.74
2022-11-27T13:54:34.743Z,6.06
2022-11-27T13:59:39.306Z,6.61
2022-11-27T14:04:55.605Z,5.93
2022-11-27T14:10:10.014Z,5.39
2022-11-27T14:15:26.495Z,5.92
2022-11-27T14:20:31.539Z,7.61
2022-11-27T14:25:37.835Z,8.31
2022-11-27T14:30:49.285Z,7.92
2022-11-27T14:36:19.701Z,6.38
2022-11-27T14:41:26.678Z,5.95
2022-11-27T14:46:29.017Z,7.25
2022-11-27T14:51:36.024Z,6.36
2022-11-27T14:56:41.895Z,7.60
2022-11-27T15:01:45.890Z,7.20
2022-11-27T15:06:47.586Z,7.21
2022-11-27T15:11:56.776Z,6.81
2022-11-27T15:16:59.147Z,7.83
2022-11-27T15:22:01.507Z,7.35
2022-11-27T15:27:23.374Z,4.51
2022-11-27T15:32:27.687Z,6.33
2022-11-27T15:37:34.530Z,7.01
2022-11-27T15:42:36.398Z,7.35
2022-11-27T15:47:39.465Z,7.23
2022-11-27T15:52:41.733Z,5.44
2022-11-27T15:57:43.605Z,5.71
2022-11-27T16:02:45.276Z,4.97
2022-11-27T16:07:50.069Z,4.88
2022-11-27T16:12:55.592Z,4.78
2022-11-27T16:17:57.406Z,5.33
2022-11-27T16:22:58.995Z,4.68
2022-11-27T16:28:03.097Z,5.54
2022-11-27T16:33:04.985Z,5.13
2022-11-27T16:38:06.595Z,5.77
2022-11-27T16:43:08.140Z,4.50
2022-11-27T16:48:09.775Z,5.11
2022-11-27T16:53:11.333Z,4.63
2022-11-27T16:58:12.973Z,5.20
2022-11-27T17:03:14.662Z,7.55
2022-11-27T17:08:16.387Z,6.22
2022-11-27T17:13:18.121Z,5.28
2022-11-27T17:18:19.771Z,5.24
2022-11-27T17:23:21.330Z,5.93
2022-11-27T17:28:23.118Z,6.52
2022-11-27T17:33:24.765Z,4.63
2022-11-27T17:38:26.326Z,5.16
2022-11-27T17:43:30.375Z,3.97
2022-11-27T17:48:33.439Z,4.70
2022-11-27T17:53:35.140Z,4.82
2022-11-27T17:58:37.859Z,5.16
2022-11-27T18:03:40.812Z,7.11
2022-11-27T18:08:42.852Z,4.80
2022-11-27T18:13:45.016Z,4.10
2022-11-27T18:18:48.833Z,4.10
2022-11-27T18:29:12.491Z,4.50
2022-11-27T18:34:14.138Z,4.85
2022-11-27T18:39:15.742Z,5.51
2022-11-27T18:44:17.435Z,4.80
2022-11-27T18:49:19.127Z,5.56
2022-11-27T18:54:21.860Z,5.35
2022-11-27T18:59:24.111Z,4.14
2022-11-27T19:04:25.705Z,3.82
2022-11-27T19:09:28.514Z,4.34
2022-11-27T19:14:30.980Z,4.96
2022-11-27T19:24:54.787Z,4.87
2022-11-27T19:29:56.333Z,4.28
2022-11-27T19:35:00.034Z,4.23
2022-11-27T19:40:06.329Z,6.38
2022-11-27T19:45:08.573Z,5.58
2022-11-27T19:50:10.619Z,4.88
2022-11-27T19:55:12.292Z,5.84
2022-11-27T20:00:15.210Z,5.35
2022-11-27T20:05:17.842Z,5.62
2022-11-27T20:10:19.422Z,6.83
2022-11-27T20:15:21.086Z,6.42
2022-11-27T20:20:22.770Z,5.12
2022-11-27T20:25:25.790Z,5.80
2022-11-27T20:30:27.450Z,6.70
2022-11-27T20:35:29.025Z,7.81
2022-11-27T20:40:30.798Z,7.18
2022-11-27T20:45:32.499Z,6.60
2022-11-27T20:50:35.824Z,7.15
2022-11-27T20:55:37.631Z,7.74
2022-11-27T21:00:40.400Z,5.95
2022-11-27T21:05:44.034Z,6.26
2022-11-27T21:10:45.701Z,5.93
2022-11-27T21:15:47.914Z,8.07
2022-11-27T21:20:49.590Z,7.32
2022-11-27T21:25:51.254Z,6.75
2022-11-27T21:30:52.895Z,7.74
2022-11-27T21:35:56.063Z,6.40
2022-11-27T21:40:57.798Z,7.06
2022-11-27T21:46:14.258Z,6.85
2022-11-27T21:51:16.514Z,7.45
2022-11-27T21:56:20.070Z,6.90
2022-11-27T22:01:24.706Z,7.14
2022-11-27T22:06:30.781Z,8.04
2022-11-27T22:11:32.943Z,7.84
2022-11-27T22:16:42.924Z,6.60
2022-11-27T22:21:46.765Z,6.74
2022-11-27T22:26:48.865Z,6.52
2022-11-27T22:31:53.144Z,7.61
2022-11-27T22:36:57.665Z,7.21
2022-11-27T22:41:59.359Z,6.87
2022-11-27T22:47:00.929Z,5.91
2022-11-27T22:52:03.639Z,7.07
2022-11-27T22:57:05.287Z,7.20
2022-11-27T23:02:07.058Z,4.54
2022-11-27T23:07:10.900Z,4.77
2022-11-27T23:12:12.545Z,6.21
2022-11-27T23:17:14.228Z,4.77
2022-11-27T23:22:15.849Z,4.86
2022-11-27T23:27:17.422Z,4.55
2022-11-27T23:32:19.086Z,7.02
2022-11-27T23:37:20.667Z,7.57
2022-11-27T23:42:22.234Z,7.43
2022-11-27T23:47:23.798Z,5.56
2022-11-27T23:52:25.438Z,4.76
2022-11-27T23:57:27.167Z,5.68
